Time;durP1;ratioP1;P1;durP2;ratioP2;P2;SDS_P1;SDS_P2;PMS_P1;PMS_P2;Temp;Humidity;BMP_temperature;BMP_pressure;BME280_temperature;BME280_humidity;BME280_pressure;Samples;Min_cycle;Max_cycle;Signal;HPM_P1;HPM_P2
2023/10/03 00:00:31;;;;;;;29.77;15.43;;;17.60;99.90;;;;;;6115186;23;20386;-72
2023/10/03 00:02:58;;;;;;;24.50;14.40;;;17.70;99.90;;;;;;6119136;23;20390;-73
2023/10/03 00:05:31;;;;;;;24.60;13.57;;;17.70;99.90;;;;;;6117817;23;20809;-75
2023/10/03 00:08:03;;;;;;;24.50;14.00;;;17.70;99.90;;;;;;6141763;23;20422;-73
2023/10/03 00:10:30;;;;;;;21.87;12.17;;;17.70;99.90;;;;;;6117526;23;20398;-74
2023/10/03 00:12:56;;;;;;;19.40;12.40;;;17.70;99.90;;;;;;6117105;23;20371;-73
2023/10/03 00:15:24;;;;;;;24.93;14.37;;;17.70;99.90;;;;;;6140005;23;20359;-73
2023/10/03 00:17:51;;;;;;;22.33;14.50;;;17.70;99.90;;;;;;6140713;23;20137;-73
2023/10/03 00:20:18;;;;;;;26.90;15.30;;;17.70;99.90;;;;;;6140728;23;20372;-72
2023/10/03 00:22:45;;;;;;;26.67;14.70;;;17.80;99.90;;;;;;6140353;23;20394;-73
2023/10/03 00:25:18;;;;;;;27.70;13.70;;;17.70;99.90;;;;;;6141774;23;20689;-72
2023/10/03 00:27:55;;;;;;;21.00;12.70;;;17.80;99.90;;;;;;6115140;23;20654;-72
2023/10/03 00:30:23;;;;;;;26.37;15.63;;;17.80;99.90;;;;;;6141068;23;20367;-72
2023/10/03 00:32:51;;;;;;;27.20;15.70;;;17.90;99.90;;;;;;6140164;23;20379;-72
2023/10/03 00:35:19;;;;;;;22.70;13.27;;;17.90;99.90;;;;;;6116530;23;20370;-73
2023/10/03 00:37:46;;;;;;;22.80;14.00;;;17.90;99.90;;;;;;6140054;23;20386;-71
2023/10/03 00:40:35;;;;;;;24.37;14.07;;;17.90;99.90;;;;;;6140846;23;20431;-74
2023/10/03 00:43:01;;;;;;;21.03;13.00;;;17.90;99.90;;;;;;6112135;23;20418;-73
2023/10/03 00:45:29;;;;;;;20.13;12.80;;;17.90;99.90;;;;;;6138515;23;20363;-73
2023/10/03 00:48:01;;;;;;;22.63;12.63;;;17.90;99.90;;;;;;6112404;23;20458;-73
2023/10/03 00:50:31;;;;;;;21.20;12.97;;;17.80;99.90;;;;;;6138529;23;20384;-73
2023/10/03 00:53:21;;;;;;;26.07;15.27;;;17.90;99.90;;;;;;6114639;23;20379;-74
2023/10/03 00:55:47;;;;;;;21.50;12.93;;;17.90;99.90;;;;;;6047351;23;20381;-73
2023/10/03 01:00:41;;;;;;;28.20;15.03;;;18.00;99.90;;;;;;6049606;23;20386;-71
2023/10/03 01:03:24;;;;;;;26.00;14.37;;;18.00;99.90;;;;;;6030408;23;20169;-72
2023/10/03 01:05:53;;;;;;;23.00;13.57;;;18.00;99.90;;;;;;6054183;23;20370;-73
2023/10/03 01:08:21;;;;;;;21.87;13.63;;;18.00;99.90;;;;;;6078998;23;20910;-72
2023/10/03 01:10:46;;;;;;;24.80;13.97;;;18.10;99.90;;;;;;6055015;23;20388;-72
2023/10/03 01:13:12;;;;;;;23.80;13.40;;;18.00;99.90;;;;;;6057848;23;20400;-74
2023/10/03 01:15:38;;;;;;;24.13;15.20;;;18.10;99.90;;;;;;6054304;23;20142;-72
2023/10/03 01:18:05;;;;;;;28.03;15.70;;;18.00;99.90;;;;;;6079448;23;20566;-72
2023/10/03 01:20:40;;;;;;;24.60;14.33;;;18.10;99.90;;;;;;6079348;23;20361;-72
2023/10/03 01:23:10;;;;;;;24.07;14.17;;;18.10;99.90;;;;;;6051298;23;20410;-73
2023/10/03 01:25:42;;;;;;;24.53;14.23;;;18.10;99.90;;;;;;6054184;23;20405;-72
2023/10/03 01:28:09;;;;;;;27.60;13.80;;;18.20;99.90;;;;;;6052253;23;20421;-72
2023/10/03 01:30:36;;;;;;;27.47;14.90;;;18.20;99.90;;;;;;6079624;23;20448;-72
2023/10/03 01:33:03;;;;;;;22.57;13.90;;;18.20;99.90;;;;;;6078973;23;20668;-74
2023/10/03 01:35:30;;;;;;;27.80;16.30;;;18.20;99.90;;;;;;6031669;23;20396;-72
2023/10/03 01:37:55;;;;;;;24.77;14.30;;;18.20;99.90;;;;;;6055991;23;20393;-72
2023/10/03 01:40:21;;;;;;;20.53;12.03;;;18.20;99.90;;;;;;6032001;23;20381;-75
2023/10/03 01:42:48;;;;;;;21.80;13.23;;;18.20;99.90;;;;;;6054170;23;20183;-72
2023/10/03 01:45:20;;;;;;;25.17;14.47;;;18.20;99.90;;;;;;6031848;23;20385;-73
2023/10/03 01:47:47;;;;;;;23.40;13.30;;;18.20;99.90;;;;;;6053003;23;20440;-74
2023/10/03 01:50:14;;;;;;;26.00;14.80;;;18.20;99.90;;;;;;6078402;23;20449;-72
2023/10/03 01:52:41;;;;;;;26.20;14.57;;;18.20;99.90;;;;;;6054017;23;20370;-73
2023/10/03 01:55:12;;;;;;;21.73;12.60;;;18.20;99.90;;;;;;6101797;23;20416;-72
2023/10/03 01:57:41;;;;;;;22.37;13.40;;;18.20;99.90;;;;;;6106326;23;20353;-73
2023/10/03 02:00:25;;;;;;;24.80;14.93;;;18.20;99.90;;;;;;6080815;23;20373;-71
2023/10/03 02:02:53;;;;;;;26.07;13.97;;;18.20;99.90;;;;;;6106715;23;20383;-74
2023/10/03 02:05:24;;;;;;;29.33;14.67;;;18.20;99.90;;;;;;6107044;23;20409;-71
2023/10/03 02:08:07;;;;;;;25.97;13.13;;;18.20;99.90;;;;;;6108096;23;20432;-75
2023/10/03 02:10:35;;;;;;;24.43;14.43;;;18.20;99.90;;;;;;6081804;23;20387;-75
2023/10/03 02:13:08;;;;;;;24.90;14.50;;;18.10;99.90;;;;;;6082655;23;20396;-72
2023/10/03 02:15:36;;;;;;;25.20;13.10;;;18.10;99.90;;;;;;6084934;23;20655;-73
2023/10/03 02:18:03;;;;;;;25.27;13.03;;;18.10;99.90;;;;;;6082993;23;20459;-72
2023/10/03 02:20:30;;;;;;;27.13;14.23;;;18.10;99.90;;;;;;6058533;23;20368;-72
2023/10/03 02:22:57;;;;;;;24.63;15.70;;;18.00;99.90;;;;;;6108796;23;20364;-73
2023/10/03 02:25:25;;;;;;;28.23;17.80;;;18.00;99.90;;;;;;6081546;23;20368;-72
2023/10/03 02:27:53;;;;;;;28.03;16.13;;;18.00;99.90;;;;;;6103451;23;20558;-72
2023/10/03 02:30:25;;;;;;;24.10;13.77;;;18.00;99.90;;;;;;6104435;23;20368;-74
2023/10/03 02:33:07;;;;;;;24.37;13.27;;;18.10;99.90;;;;;;6105638;23;20797;-72
2023/10/03 02:35:33;;;;;;;24.17;14.07;;;18.10;99.90;;;;;;6082871;23;20420;-74
2023/10/03 02:37:59;;;;;;;24.47;13.70;;;18.10;99.90;;;;;;6106124;23;20623;-72
2023/10/03 02:40:29;;;;;;;30.70;13.60;;;18.10;99.90;;;;;;6081257;23;20171;-71
2023/10/03 02:42:55;;;;;;;22.60;13.43;;;18.10;99.90;;;;;;6105935;23;20188;-73
2023/10/03 02:45:23;;;;;;;22.90;13.93;;;18.10;99.90;;;;;;6082236;23;20377;-73
2023/10/03 02:47:51;;;;;;;19.43;12.40;;;18.20;99.90;;;;;;6080435;23;20369;-72
2023/10/03 02:50:18;;;;;;;24.50;13.70;;;18.10;99.90;;;;;;6080423;23;20477;-73
2023/10/03 02:52:45;;;;;;;24.40;13.87;;;18.10;99.90;;;;;;6107037;23;20395;-72
2023/10/03 02:55:15;;;;;;;18.90;11.90;;;18.10;99.90;;;;;;6082725;23;20407;-72
2023/10/03 02:57:41;;;;;;;21.77;13.57;;;18.10;99.90;;;;;;6105404;23;20372;-72
2023/10/03 03:00:13;;;;;;;23.03;13.53;;;18.10;99.90;;;;;;6080641;23;20388;-72
2023/10/03 03:02:46;;;;;;;26.47;14.20;;;18.10;99.90;;;;;;6080573;23;20368;-73
2023/10/03 03:05:17;;;;;;;21.30;12.87;;;18.10;99.90;;;;;;6105658;23;20460;-71
2023/10/03 03:07:47;;;;;;;17.70;11.47;;;18.10;99.90;;;;;;6057252;23;20805;-73
2023/10/03 03:10:16;;;;;;;20.67;11.60;;;18.10;99.90;;;;;;6082686;23;20384;-70
2023/10/03 03:12:43;;;;;;;16.53;10.73;;;18.00;99.90;;;;;;6059927;23;20380;-73
2023/10/03 03:15:17;;;;;;;18.20;10.87;;;18.00;99.90;;;;;;6081134;23;20736;-73
2023/10/03 03:17:43;;;;;;;18.57;10.63;;;18.00;99.90;;;;;;6082361;23;20380;-73
2023/10/03 03:20:20;;;;;;;17.43;10.73;;;18.00;99.90;;;;;;6113922;23;20369;-71
2023/10/03 03:22:50;;;;;;;17.30;11.60;;;18.00;99.90;;;;;;6113588;23;20442;-72
2023/10/03 03:25:36;;;;;;;18.60;11.40;;;18.00;99.90;;;;;;6088335;23;20888;-73
2023/10/03 03:28:13;;;;;;;19.70;11.90;;;18.10;99.90;;;;;;6087345;23;20414;-72
2023/10/03 03:30:45;;;;;;;24.30;11.30;;;18.10;99.90;;;;;;6087986;23;20373;-72
2023/10/03 03:33:14;;;;;;;18.13;11.80;;;18.10;99.90;;;;;;6111935;23;20391;-72
2023/10/03 03:35:40;;;;;;;17.63;10.40;;;18.10;99.90;;;;;;6088006;23;20396;-74
2023/10/03 03:38:07;;;;;;;20.20;11.33;;;18.10;99.90;;;;;;6088834;23;20408;-72
2023/10/03 03:40:34;;;;;;;21.00;11.70;;;18.10;99.90;;;;;;6114020;23;20376;-71
2023/10/03 03:43:05;;;;;;;18.60;11.50;;;18.20;99.90;;;;;;6087000;23;20380;-73
2023/10/03 03:45:31;;;;;;;18.77;11.27;;;18.20;99.90;;;;;;6111796;23;20351;-72
2023/10/03 03:47:57;;;;;;;20.40;11.77;;;18.30;99.90;;;;;;6112567;23;20437;-72
2023/10/03 03:50:23;;;;;;;18.80;12.20;;;18.20;99.90;;;;;;6088907;23;20160;-72
2023/10/03 03:52:49;;;;;;;16.90;9.80;;;18.30;99.90;;;;;;6111928;23;20140;-73
2023/10/03 03:55:17;;;;;;;17.63;10.50;;;18.30;99.90;;;;;;6113195;23;20412;-72
2023/10/03 03:57:43;;;;;;;15.37;10.13;;;18.30;99.90;;;;;;6112274;23;20422;-72
2023/10/03 04:00:12;;;;;;;19.77;12.00;;;18.30;99.90;;;;;;6112490;23;20683;-73
2023/10/03 04:02:41;;;;;;;15.60;9.27;;;18.30;99.90;;;;;;6089001;23;20368;-71
2023/10/03 04:05:07;;;;;;;17.00;9.80;;;18.30;99.90;;;;;;6111018;23;20817;-72
2023/10/03 04:07:38;;;;;;;16.00;9.90;;;18.30;99.90;;;;;;6082295;23;20369;-72
2023/10/03 04:10:06;;;;;;;20.20;12.20;;;18.30;99.90;;;;;;6105781;23;20443;-71
2023/10/03 04:12:39;;;;;;;19.90;11.27;;;18.30;99.90;;;;;;6079632;23;20774;-72
2023/10/03 04:15:06;;;;;;;16.83;10.13;;;18.30;99.90;;;;;;6104532;23;20486;-70
2023/10/03 04:17:33;;;;;;;18.50;11.50;;;18.40;99.90;;;;;;6105011;23;20531;-73
2023/10/03 04:19:59;;;;;;;17.07;10.80;;;18.30;99.90;;;;;;6104542;23;20634;-72
2023/10/03 04:22:27;;;;;;;17.93;9.20;;;18.30;99.90;;;;;;6080022;23;20615;-71
2023/10/03 04:24:53;;;;;;;12.20;9.00;;;18.30;99.90;;;;;;6078983;23;20392;-73
2023/10/03 04:27:18;;;;;;;21.03;12.03;;;18.30;99.90;;;;;;6105086;23;20778;-72
2023/10/03 04:29:44;;;;;;;17.57;11.40;;;18.30;99.90;;;;;;6104910;23;20199;-70
2023/10/03 04:32:10;;;;;;;18.80;11.37;;;18.30;99.90;;;;;;6106349;23;20137;-73
2023/10/03 04:34:35;;;;;;;17.57;11.23;;;18.40;99.90;;;;;;6081738;23;20408;-71
2023/10/03 04:37:01;;;;;;;15.57;9.20;;;18.50;99.90;;;;;;6106968;23;20129;-71
2023/10/03 04:39:27;;;;;;;14.37;9.17;;;18.40;99.90;;;;;;6081545;23;20231;-72
2023/10/03 04:41:53;;;;;;;13.90;8.77;;;18.40;99.90;;;;;;6055541;23;20630;-72
2023/10/03 04:44:19;;;;;;;15.43;8.80;;;18.30;99.90;;;;;;6079684;23;20566;-71
2023/10/03 04:46:45;;;;;;;15.47;8.80;;;18.30;99.90;;;;;;6080209;23;20368;-71
2023/10/03 04:49:11;;;;;;;14.80;9.40;;;18.20;99.90;;;;;;6105724;23;20271;-72
2023/10/03 04:51:37;;;;;;;17.17;9.60;;;18.20;99.90;;;;;;6105955;23;20372;-72
2023/10/03 04:54:03;;;;;;;13.67;7.63;;;18.20;99.90;;;;;;6053475;23;20196;-73
2023/10/03 04:56:29;;;;;;;12.70;8.20;;;18.20;99.90;;;;;;6079021;23;20377;-71
2023/10/03 04:58:57;;;;;;;14.57;8.63;;;18.20;99.90;;;;;;6051504;23;20352;-72
2023/10/03 05:01:23;;;;;;;16.03;9.67;;;18.20;99.90;;;;;;6075700;23;20149;-73
2023/10/03 05:03:48;;;;;;;14.20;9.07;;;18.20;99.90;;;;;;6076286;23;20476;-72
2023/10/03 05:06:14;;;;;;;15.27;9.47;;;18.20;99.90;;;;;;6076822;23;20225;-71
2023/10/03 05:08:42;;;;;;;15.53;9.67;;;18.20;99.90;;;;;;6077200;23;20161;-72
2023/10/03 05:11:08;;;;;;;14.80;8.93;;;18.20;99.90;;;;;;6076256;23;20141;-71
2023/10/03 05:13:34;;;;;;;15.33;9.07;;;18.20;99.90;;;;;;6077009;23;20400;-70
2023/10/03 05:15:59;;;;;;;19.27;8.93;;;18.10;99.90;;;;;;6076738;23;20381;-75
2023/10/03 05:18:25;;;;;;;15.97;10.13;;;18.20;99.90;;;;;;6075721;23;20176;-72
2023/10/03 05:20:55;;;;;;;16.63;8.97;;;18.20;99.90;;;;;;6051103;23;20149;-73
2023/10/03 05:23:21;;;;;;;16.07;10.33;;;18.20;99.90;;;;;;6075629;23;20253;-71
2023/10/03 05:25:47;;;;;;;15.70;10.50;;;18.30;99.90;;;;;;6075511;23;20390;-73
2023/10/03 05:28:12;;;;;;;13.97;8.60;;;18.30;99.90;;;;;;6076924;23;20256;-72
2023/10/03 05:30:39;;;;;;;16.60;10.20;;;18.30;99.90;;;;;;6077172;23;20470;-71
2023/10/03 05:33:08;;;;;;;19.30;9.00;;;18.40;99.90;;;;;;6076128;23;20206;-72
2023/10/03 05:35:34;;;;;;;13.37;8.00;;;18.40;99.90;;;;;;6054033;23;20394;-71
2023/10/03 05:37:59;;;;;;;37.30;12.80;;;18.40;99.90;;;;;;6076732;23;20374;-69
2023/10/03 05:40:26;;;;;;;29.30;10.87;;;18.50;99.90;;;;;;6053161;23;20780;-72
2023/10/03 05:42:52;;;;;;;18.70;9.80;;;18.50;99.90;;;;;;6074772;23;20428;-71
2023/10/03 05:45:19;;;;;;;16.77;8.93;;;18.50;99.90;;;;;;6077152;23;20401;-71
2023/10/03 05:47:47;;;;;;;21.30;10.50;;;18.40;99.90;;;;;;6076411;23;20137;-72
2023/10/03 05:50:16;;;;;;;29.00;10.00;;;18.50;99.90;;;;;;6076828;23;20397;-72
2023/10/03 05:52:46;;;;;;;20.23;9.57;;;18.60;99.90;;;;;;6079001;23;20763;-69
2023/10/03 05:55:12;;;;;;;29.87;9.83;;;18.60;99.90;;;;;;6100578;23;20481;-72
2023/10/03 05:57:40;;;;;;;26.67;10.30;;;18.70;99.90;;;;;;6081494;23;20373;-72
2023/10/03 06:00:10;;;;;;;15.00;9.60;;;18.70;99.90;;;;;;6081342;23;20148;-70
2023/10/03 06:02:39;;;;;;;22.37;8.80;;;18.80;99.90;;;;;;6081911;23;20440;-72
2023/10/03 06:05:08;;;;;;;15.87;7.80;;;18.80;99.90;;;;;;6056848;23;20424;-70
2023/10/03 06:07:36;;;;;;;18.63;8.70;;;18.90;99.90;;;;;;6106406;23;20361;-72
2023/10/03 06:10:04;;;;;;;14.70;6.60;;;18.90;99.90;;;;;;6106010;23;20495;-74
2023/10/03 06:12:30;;;;;;;18.60;10.40;;;19.00;99.90;;;;;;6104012;23;20380;-72
2023/10/03 06:14:56;;;;;;;15.30;8.87;;;19.10;99.90;;;;;;6056002;23;20436;-71
2023/10/03 06:17:21;;;;;;;13.93;7.83;;;19.10;99.90;;;;;;6055887;23;20469;-72
2023/10/03 06:19:47;;;;;;;12.23;7.87;;;19.20;99.90;;;;;;6104319;23;20148;-71
2023/10/03 06:22:12;;;;;;;13.53;7.80;;;19.30;99.90;;;;;;6106149;23;20132;-71
2023/10/03 06:24:41;;;;;;;13.33;7.80;;;19.30;99.90;;;;;;6078924;23;20172;-72
2023/10/03 06:27:10;;;;;;;12.63;7.40;;;19.40;99.90;;;;;;6055450;23;20156;-72
2023/10/03 06:29:37;;;;;;;11.57;7.63;;;19.40;99.90;;;;;;6105416;23;20443;-71
2023/10/03 06:32:03;;;;;;;14.80;8.70;;;19.50;99.90;;;;;;6105232;23;20365;-71
2023/10/03 06:34:31;;;;;;;11.70;7.10;;;19.60;99.90;;;;;;6105279;23;20845;-71
2023/10/03 06:36:57;;;;;;;11.70;7.40;;;19.60;99.90;;;;;;6105660;23;20141;-72
2023/10/03 06:39:22;;;;;;;11.03;7.37;;;19.70;99.90;;;;;;6106658;23;20467;-73
2023/10/03 06:41:49;;;;;;;12.10;7.63;;;19.70;99.90;;;;;;6107027;23;20147;-74
2023/10/03 06:44:17;;;;;;;9.70;6.67;;;19.70;99.90;;;;;;6106858;23;20170;-74
2023/10/03 06:46:42;;;;;;;16.20;8.90;;;19.80;99.90;;;;;;6083878;23;20380;-71
2023/10/03 06:49:10;;;;;;;13.73;8.40;;;19.80;99.90;;;;;;6083655;23;20212;-72
2023/10/03 06:51:36;;;;;;;11.73;7.40;;;19.80;99.90;;;;;;6107500;23;20272;-72
2023/10/03 06:54:03;;;;;;;11.60;7.73;;;19.90;99.90;;;;;;6109304;23;20412;-72
2023/10/03 06:56:32;;;;;;;11.00;7.07;;;20.00;99.90;;;;;;6084506;23;20380;-72
2023/10/03 06:58:59;;;;;;;14.23;7.90;;;20.00;99.90;;;;;;6109182;23;20376;-72
2023/10/03 07:01:24;;;;;;;16.00;8.93;;;20.10;99.90;;;;;;6107532;23;20639;-72
2023/10/03 07:03:53;;;;;;;12.03;7.37;;;20.10;99.90;;;;;;6108063;23;20464;-73
2023/10/03 07:06:18;;;;;;;11.57;7.43;;;20.10;99.90;;;;;;6109353;23;20196;-73
2023/10/03 07:08:44;;;;;;;9.23;6.83;;;20.10;99.90;;;;;;6083140;23;20416;-73
2023/10/03 07:11:12;;;;;;;16.60;7.97;;;20.20;99.90;;;;;;6058676;23;20136;-71
2023/10/03 07:13:38;;;;;;;17.23;8.00;;;20.20;99.90;;;;;;6106520;23;20199;-72
2023/10/03 07:16:04;;;;;;;14.10;8.77;;;20.20;99.90;;;;;;6058243;23;20377;-73
2023/10/03 07:18:29;;;;;;;12.77;7.70;;;20.20;99.90;;;;;;6081564;23;20455;-72
2023/10/03 07:20:57;;;;;;;15.13;8.00;;;20.20;99.90;;;;;;6081952;23;20137;-72
2023/10/03 07:23:23;;;;;;;15.37;7.90;;;20.30;99.90;;;;;;6083127;23;20180;-72
2023/10/03 07:25:49;;;;;;;13.57;7.70;;;20.20;99.90;;;;;;6082849;23;20404;-71
2023/10/03 07:28:14;;;;;;;10.93;7.20;;;20.20;99.90;;;;;;6083908;23;20160;-71
2023/10/03 07:30:41;;;;;;;11.83;7.07;;;20.20;99.90;;;;;;6083005;23;20200;-72
2023/10/03 07:33:11;;;;;;;12.67;7.53;;;20.20;99.90;;;;;;6059121;23;20160;-74
2023/10/03 07:35:37;;;;;;;13.33;7.53;;;20.20;99.90;;;;;;6058625;23;20396;-72
2023/10/03 07:38:04;;;;;;;10.70;6.53;;;20.20;99.90;;;;;;6108674;23;20392;-73
2023/10/03 07:40:30;;;;;;;7.87;5.30;;;20.10;99.90;;;;;;6083167;23;20369;-72
2023/10/03 07:42:56;;;;;;;12.30;6.73;;;20.00;99.90;;;;;;6082720;23;20339;-73
2023/10/03 07:45:22;;;;;;;9.90;6.93;;;20.00;99.90;;;;;;6060431;23;20153;-72
2023/10/03 07:47:50;;;;;;;8.57;5.10;;;19.90;99.90;;;;;;6084207;23;20498;-72
2023/10/03 07:50:16;;;;;;;13.10;6.70;;;19.90;99.90;;;;;;6060698;23;20533;-72
2023/10/03 07:52:44;;;;;;;10.13;6.90;;;19.80;99.90;;;;;;6059636;23;20373;-72
2023/10/03 07:55:11;;;;;;;11.30;5.60;;;19.80;99.90;;;;;;6108210;23;20408;-72
2023/10/03 07:57:41;;;;;;;8.70;5.60;;;19.80;99.90;;;;;;6082960;23;20436;-72
2023/10/03 08:00:09;;;;;;;6.20;5.33;;;19.70;99.90;;;;;;6108942;23;20440;-72
2023/10/03 08:02:35;;;;;;;10.50;6.10;;;19.80;99.90;;;;;;6084658;23;20375;-73
2023/10/03 08:05:00;;;;;;;8.63;5.50;;;19.80;99.90;;;;;;6110478;23;20740;-72
2023/10/03 08:07:29;;;;;;;12.17;6.50;;;19.80;99.90;;;;;;6110806;23;20224;-73
2023/10/03 08:09:55;;;;;;;10.43;5.70;;;19.80;99.90;;;;;;6085848;23;20182;-73
2023/10/03 08:12:24;;;;;;;8.60;6.37;;;19.90;99.90;;;;;;6087148;23;20395;-72
2023/10/03 08:14:54;;;;;;;5.80;4.73;;;20.00;99.90;;;;;;6108232;23;20367;-72
2023/10/03 08:17:20;;;;;;;12.50;6.87;;;20.10;99.90;;;;;;6087369;23;20372;-72
2023/10/03 08:19:49;;;;;;;7.17;5.80;;;20.20;99.90;;;;;;6064634;23;20557;-72
2023/10/03 08:22:17;;;;;;;7.03;5.90;;;20.40;99.90;;;;;;6063255;23;20679;-73
2023/10/03 08:24:45;;;;;;;6.77;5.40;;;20.60;99.90;;;;;;6036389;23;20404;-73
2023/10/03 08:27:21;;;;;;;8.20;5.27;;;20.60;99.90;;;;;;6108021;23;20890;-72
2023/10/03 08:29:51;;;;;;;6.50;4.97;;;20.80;99.90;;;;;;6085169;23;20180;-75
2023/10/03 08:32:19;;;;;;;7.20;4.60;;;20.90;99.90;;;;;;6060593;23;20369;-72
2023/10/03 08:34:46;;;;;;;6.93;4.30;;;21.00;99.90;;;;;;6111270;23;20401;-72
2023/10/03 08:37:21;;;;;;;5.67;4.33;;;21.20;99.90;;;;;;6089102;23;20512;-72
2023/10/03 08:39:51;;;;;;;4.77;3.57;;;21.20;99.90;;;;;;6066811;23;20480;-73
2023/10/03 08:42:35;;;;;;;5.10;4.33;;;21.20;99.90;;;;;;6090082;23;20376;-73
2023/10/03 08:45:16;;;;;;;4.50;3.80;;;21.30;99.90;;;;;;6117528;23;20407;-72
2023/10/03 08:47:48;;;;;;;5.00;3.40;;;21.20;99.90;;;;;;6118724;23;20372;-71
2023/10/03 08:50:34;;;;;;;4.43;4.03;;;21.20;99.90;;;;;;6094366;23;20663;-75
2023/10/03 08:53:16;;;;;;;5.63;3.37;;;21.10;99.90;;;;;;6071374;23;20385;-73
2023/10/03 08:55:49;;;;;;;4.73;3.33;;;21.10;99.90;;;;;;6111329;23;20408;-75
2023/10/03 08:58:18;;;;;;;4.50;3.03;;;21.20;99.90;;;;;;6111849;23;20353;-72
2023/10/03 09:00:58;;;;;;;4.20;3.40;;;21.30;99.90;;;;;;6091530;23;20373;-73
2023/10/03 09:03:29;;;;;;;5.20;4.33;;;21.60;99.90;;;;;;6112786;23;20397;-73
2023/10/03 09:05:58;;;;;;;4.60;2.93;;;21.90;99.90;;;;;;6086466;23;20367;-73
2023/10/03 09:08:25;;;;;;;5.13;3.30;;;22.10;99.90;;;;;;6086531;23;20412;-73
2023/10/03 09:10:52;;;;;;;5.83;3.90;;;22.30;98.80;;;;;;6087240;23;20381;-72
2023/10/03 09:13:25;;;;;;;5.90;4.13;;;22.30;97.10;;;;;;6063115;23;20367;-72
2023/10/03 09:16:14;;;;;;;7.77;3.23;;;22.20;97.00;;;;;;6086136;23;20375;-74
2023/10/03 09:18:41;;;;;;;5.10;3.53;;;22.00;97.20;;;;;;6087149;23;20412;-73
2023/10/03 09:21:23;;;;;;;3.33;2.80;;;21.70;98.30;;;;;;6089361;23;20372;-73
2023/10/03 09:24:17;;;;;;;4.97;3.70;;;21.60;99.30;;;;;;6089980;23;20863;-73
2023/10/03 09:26:51;;;;;;;4.90;3.17;;;21.50;99.90;;;;;;6086879;23;20423;-72
2023/10/03 09:29:30;;;;;;;5.60;3.50;;;21.40;99.90;;;;;;6087214;23;20932;-73
2023/10/03 09:32:20;;;;;;;4.10;3.70;;;21.20;99.90;;;;;;6088012;23;20429;-72
2023/10/03 09:34:56;;;;;;;5.13;3.20;;;20.90;99.90;;;;;;6064026;23;20448;-74
2023/10/03 09:37:28;;;;;;;7.23;3.27;;;20.80;99.90;;;;;;6089492;23;20468;-73
2023/10/03 09:40:16;;;;;;;4.80;3.20;;;20.70;99.90;;;;;;6069963;23;20375;-77
2023/10/03 09:42:48;;;;;;;4.03;2.97;;;20.70;99.90;;;;;;6069974;23;20388;-72
2023/10/03 09:45:26;;;;;;;4.83;2.90;;;20.80;99.90;;;;;;6063753;23;20440;-73
2023/10/03 09:47:58;;;;;;;3.87;2.90;;;21.00;99.90;;;;;;6062899;23;20387;-74
2023/10/03 09:50:30;;;;;;;4.53;3.20;;;21.10;99.90;;;;;;6087931;23;20377;-76
2023/10/03 09:53:01;;;;;;;4.87;2.90;;;21.10;99.90;;;;;;6089357;23;20401;-74
2023/10/03 09:55:41;;;;;;;4.80;4.30;;;21.10;99.90;;;;;;6088395;23;20873;-74
2023/10/03 09:58:07;;;;;;;8.67;3.67;;;21.10;99.90;;;;;;6087410;23;20393;-73
2023/10/03 10:00:40;;;;;;;5.37;4.30;;;21.10;99.90;;;;;;6088471;23;20404;-74
2023/10/03 10:03:19;;;;;;;5.70;3.47;;;21.10;99.90;;;;;;6113207;23;20224;-73
2023/10/03 10:06:17;;;;;;;5.30;3.60;;;21.20;99.90;;;;;;6086524;23;20411;-74
2023/10/03 10:08:59;;;;;;;4.90;4.00;;;21.40;99.90;;;;;;6088465;23;20409;-73
2023/10/03 10:11:30;;;;;;;6.30;4.37;;;21.60;99.90;;;;;;6087621;23;20384;-73
2023/10/03 10:14:11;;;;;;;5.47;3.50;;;21.70;99.90;;;;;;6088778;23;20424;-74
2023/10/03 10:17:06;;;;;;;6.10;3.73;;;21.80;99.90;;;;;;6088779;23;20368;-73
2023/10/03 10:20:38;;;;;;;7.47;3.77;;;21.90;99.90;;;;;;6088407;23;20810;-74
2023/10/03 10:23:13;;;;;;;6.80;3.67;;;21.80;99.90;;;;;;6051546;23;20411;-74
2023/10/03 10:25:43;;;;;;;5.10;4.23;;;21.80;99.90;;;;;;6063928;23;20732;-73
2023/10/03 10:28:09;;;;;;;5.27;4.20;;;21.80;99.90;;;;;;6089339;23;20689;-75
2023/10/03 10:30:36;;;;;;;5.53;4.43;;;21.70;99.90;;;;;;6087508;23;20376;-73
2023/10/03 10:33:23;;;;;;;5.50;3.87;;;21.60;99.90;;;;;;6065992;23;20188;-75
2023/10/03 10:35:56;;;;;;;9.73;5.50;;;21.60;99.90;;;;;;6064818;23;20402;-73
2023/10/03 10:38:45;;;;;;;5.93;3.90;;;21.50;99.90;;;;;;6070335;23;20381;-73
2023/10/03 10:41:29;;;;;;;4.53;3.47;;;21.50;99.90;;;;;;6064633;23;20388;-75
2023/10/03 10:44:14;;;;;;;5.77;3.80;;;21.50;99.90;;;;;;6088222;23;20400;-74
2023/10/03 10:46:49;;;;;;;6.53;4.20;;;21.40;99.90;;;;;;6085564;23;20376;-74
2023/10/03 10:49:30;;;;;;;5.17;4.30;;;21.40;99.90;;;;;;6085645;23;20411;-75
2023/10/03 10:52:06;;;;;;;5.10;3.80;;;21.40;99.90;;;;;;6061520;23;20464;-75
2023/10/03 10:54:35;;;;;;;6.27;4.57;;;21.20;99.90;;;;;;6085055;23;20424;-75
2023/10/03 10:57:05;;;;;;;7.70;4.43;;;21.10;99.90;;;;;;6088308;23;20516;-74
2023/10/03 10:59:35;;;;;;;5.10;3.90;;;21.00;99.90;;;;;;6087715;23;20409;-73
2023/10/03 11:02:03;;;;;;;5.10;3.63;;;20.90;99.90;;;;;;6061976;23;20377;-75
2023/10/03 11:04:34;;;;;;;5.10;3.77;;;20.80;99.90;;;;;;6029620;23;20417;-75
2023/10/03 11:07:00;;;;;;;7.13;4.47;;;20.80;99.90;;;;;;6082779;23;20445;-72
2023/10/03 11:09:26;;;;;;;5.83;4.10;;;20.80;99.90;;;;;;6080119;23;20537;-73
2023/10/03 11:11:52;;;;;;;12.30;4.90;;;20.90;99.90;;;;;;6057450;23;20149;-74
2023/10/03 11:14:26;;;;;;;8.50;4.63;;;21.10;99.90;;;;;;6080545;23;20198;-74
2023/10/03 11:16:52;;;;;;;6.00;4.17;;;21.10;99.90;;;;;;6059063;23;20193;-73
2023/10/03 11:19:18;;;;;;;7.27;3.03;;;20.80;99.90;;;;;;6082330;23;20378;-74
2023/10/03 11:21:44;;;;;;;4.03;2.40;;;20.30;99.90;;;;;;6083451;23;20149;-74
2023/10/03 11:24:22;;;;;;;5.07;3.20;;;19.90;99.90;;;;;;6082648;23;20409;-75
2023/10/03 11:26:52;;;;;;;4.77;3.33;;;19.70;99.90;;;;;;6082336;23;20385;-72
2023/10/03 11:29:37;;;;;;;3.33;2.30;;;19.50;99.90;;;;;;6081232;23;20484;-73
2023/10/03 11:32:20;;;;;;;7.07;3.20;;;19.30;99.90;;;;;;6080399;23;20402;-75
2023/10/03 11:34:48;;;;;;;7.17;3.17;;;18.90;99.90;;;;;;6060654;23;20447;-74
2023/10/03 11:37:37;;;;;;;5.37;4.60;;;18.40;99.90;;;;;;6063299;23;20376;-74
2023/10/03 11:40:26;;;;;;;7.60;4.70;;;17.90;99.90;;;;;;6092241;23;20379;-78
2023/10/03 11:43:07;;;;;;;16.23;5.70;;;17.30;99.90;;;;;;6089609;23;20741;-73
2023/10/03 11:45:34;;;;;;;5.97;5.40;;;17.00;99.90;;;;;;6089318;23;20482;-74
2023/10/03 11:48:06;;;;;;;12.50;6.90;;;16.80;99.90;;;;;;6087437;23;20367;-75
2023/10/03 11:50:33;;;;;;;11.60;6.00;;;16.60;99.90;;;;;;6087103;23;20452;-74
2023/10/03 11:52:59;;;;;;;12.20;8.50;;;16.50;99.90;;;;;;6112595;23;20356;-73
2023/10/03 11:55:26;;;;;;;8.73;7.40;;;16.40;99.90;;;;;;6086885;23;20420;-72
2023/10/03 11:57:52;;;;;;;16.10;9.73;;;16.40;99.90;;;;;;6088230;23;20659;-73
2023/10/03 12:00:18;;;;;;;10.00;8.70;;;16.30;99.90;;;;;;6087441;23;20379;-72
2023/10/03 12:02:45;;;;;;;9.60;8.17;;;16.30;99.90;;;;;;6090509;23;20147;-75
2023/10/03 12:05:12;;;;;;;8.13;7.43;;;16.30;99.90;;;;;;6066566;23;20185;-75
2023/10/03 12:07:39;;;;;;;14.90;8.77;;;16.30;99.90;;;;;;6088542;23;20372;-74
2023/10/03 12:10:12;;;;;;;9.43;8.30;;;16.30;99.90;;;;;;6063030;23;20407;-73
2023/10/03 12:12:41;;;;;;;10.63;9.40;;;16.30;99.90;;;;;;6113227;23;20387;-73
2023/10/03 12:15:12;;;;;;;10.50;9.30;;;16.30;99.90;;;;;;6088777;23;20400;-73
2023/10/03 12:17:39;;;;;;;9.33;8.33;;;16.30;99.90;;;;;;6088602;23;20375;-75
2023/10/03 12:20:07;;;;;;;11.03;9.40;;;16.30;99.90;;;;;;6066154;23;20379;-75
2023/10/03 12:22:32;;;;;;;10.40;8.10;;;16.30;99.90;;;;;;6087154;23;20380;-73
2023/10/03 12:24:58;;;;;;;9.30;7.23;;;16.30;99.90;;;;;;6087488;23;20402;-73
2023/10/03 12:27:26;;;;;;;9.27;7.97;;;16.40;99.90;;;;;;6052864;23;20154;-74
2023/10/03 12:29:52;;;;;;;8.83;7.83;;;16.40;99.90;;;;;;6053006;23;20627;-75
2023/10/03 12:32:17;;;;;;;9.03;7.90;;;16.40;99.90;;;;;;6004825;23;20398;-75
2023/10/03 12:34:43;;;;;;;7.90;7.10;;;16.30;99.90;;;;;;6052973;23;20405;-74
2023/10/03 12:37:11;;;;;;;8.43;6.60;;;16.30;99.90;;;;;;6055036;23;20479;-76
2023/10/03 12:39:38;;;;;;;6.87;6.23;;;16.20;99.90;;;;;;6058864;23;20162;-74
2023/10/03 12:42:05;;;;;;;8.63;6.80;;;16.10;99.90;;;;;;6032295;23;20388;-76
2023/10/03 12:44:32;;;;;;;7.00;5.27;;;16.10;99.90;;;;;;6032737;23;20414;-73
2023/10/03 12:46:58;;;;;;;9.10;5.53;;;16.00;99.90;;;;;;6032113;23;20420;-72
2023/10/03 12:49:24;;;;;;;5.40;4.60;;;15.90;99.90;;;;;;6008885;23;20407;-76
2023/10/03 12:51:52;;;;;;;10.23;4.20;;;15.90;99.90;;;;;;6055891;23;20182;-75